createdAt,value
2022-08-22T00:01:04.138Z,15.45
2022-08-22T00:03:04.983Z,2.45
2022-08-22T00:04:22.347Z,12.13
2022-08-22T00:07:56.991Z,13.73
2022-08-22T00:11:21.987Z,8.63
2022-08-22T00:14:52.852Z,9.35
2022-08-22T00:18:44.791Z,7.00
2022-08-22T00:22:22.989Z,4.60
2022-08-22T00:25:56.105Z,4.13
2022-08-22T00:29:03.876Z,4.05
2022-08-22T00:32:32.706Z,3.60
2022-08-22T00:35:46.291Z,3.22
2022-08-22T00:39:03.137Z,3.60
2022-08-22T00:42:37.354Z,3.55
2022-08-22T00:46:26.391Z,3.17
2022-08-22T00:49:36.032Z,2.78
2022-08-22T00:52:42.807Z,3.10
2022-08-22T00:56:20.627Z,3.20
2022-08-22T00:59:49.488Z,3.08
2022-08-22T01:03:08.737Z,3.00
2022-08-22T01:06:30.847Z,2.97
2022-08-22T01:09:41.330Z,2.75
2022-08-22T01:13:14.139Z,3.20
2022-08-22T01:16:37.466Z,3.53
2022-08-22T01:20:00.385Z,2.87
2022-08-22T01:23:19.621Z,3.13
2022-08-22T01:27:19.513Z,3.30
2022-08-22T01:30:48.466Z,2.88
2022-08-22T01:34:29.784Z,2.80
2022-08-22T01:38:31.176Z,2.97
2022-08-22T01:41:59.610Z,3.10
2022-08-22T01:45:15.394Z,2.75
2022-08-22T01:48:33.920Z,3.00
2022-08-22T01:52:09.058Z,3.05
2022-08-22T01:55:46.065Z,3.22
2022-08-22T01:59:02.315Z,2.95
2022-08-22T02:02:12.215Z,2.90
2022-08-22T02:05:31.744Z,3.22
2022-08-22T02:09:04.347Z,3.40
2022-08-22T02:12:21.530Z,3.03
2022-08-22T02:15:38.826Z,3.25
2022-08-22T02:18:50.364Z,3.35
2022-08-22T02:22:13.396Z,3.00
2022-08-22T02:25:23.640Z,3.20
2022-08-22T02:28:41.089Z,3.10
2022-08-22T02:32:22.162Z,3.10
2022-08-22T02:35:35.352Z,3.40
2022-08-22T02:38:49.696Z,3.25
2022-08-22T02:42:17.170Z,3.58
2022-08-22T02:45:38.984Z,3.78
2022-08-22T02:48:52.158Z,3.65
2022-08-22T02:52:11.642Z,3.70
2022-08-22T02:55:21.351Z,3.30
2022-08-22T02:58:44.615Z,4.00
2022-08-22T03:01:48.813Z,3.60
2022-08-22T03:04:55.980Z,3.88
2022-08-22T03:08:29.205Z,3.42
2022-08-22T03:11:38.597Z,3.38
2022-08-22T03:15:07.504Z,3.88
2022-08-22T03:18:19.394Z,3.75
2022-08-22T03:21:42.362Z,3.45
2022-08-22T03:25:04.843Z,3.43
2022-08-22T03:28:20.310Z,3.85
2022-08-22T03:31:26.204Z,3.50
2022-08-22T03:34:30.141Z,3.67
2022-08-22T03:37:37.789Z,3.95
2022-08-22T03:41:24.501Z,3.97
2022-08-22T03:44:54.213Z,3.70
2022-08-22T03:48:17.597Z,3.47
2022-08-22T03:51:46.914Z,3.97
2022-08-22T03:55:15.147Z,4.32
2022-08-22T03:58:57.224Z,3.67
2022-08-22T04:03:03.790Z,4.30
2022-08-22T04:06:37.733Z,4.32
2022-08-22T04:10:16.494Z,4.03
2022-08-22T04:13:36.852Z,4.03
2022-08-22T04:16:56.270Z,4.35
2022-08-22T04:20:20.912Z,4.03
2022-08-22T04:23:40.414Z,4.30
2022-08-22T04:26:53.993Z,4.30
2022-08-22T04:30:07.458Z,4.57
2022-08-22T04:33:46.548Z,4.13
2022-08-22T04:37:09.992Z,4.28
2022-08-22T04:40:25.717Z,4.38
2022-08-22T04:43:33.270Z,4.35
2022-08-22T04:47:33.618Z,4.32
2022-08-22T04:51:12.875Z,4.40
2022-08-22T04:54:24.327Z,4.40
2022-08-22T04:57:36.651Z,4.55
2022-08-22T05:00:57.535Z,4.80
2022-08-22T05:04:07.360Z,4.50
2022-08-22T05:07:14.591Z,4.90
2022-08-22T05:10:25.745Z,4.32
2022-08-22T05:13:39.617Z,4.85
2022-08-22T05:16:47.977Z,4.63
2022-08-22T05:19:56.547Z,4.00
2022-08-22T05:23:17.513Z,4.50
2022-08-22T05:26:21.932Z,4.90
2022-08-22T05:29:29.902Z,5.72
2022-08-22T05:32:52.177Z,4.90
2022-08-22T05:36:06.031Z,4.57
2022-08-22T05:39:23.720Z,4.90
2022-08-22T05:42:37.467Z,4.63
2022-08-22T05:45:46.037Z,5.18
2022-08-22T05:48:58.572Z,4.88
2022-08-22T05:52:10.405Z,4.85
2022-08-22T05:55:30.484Z,5.53
2022-08-22T05:58:41.508Z,4.97
2022-08-22T06:01:53.816Z,4.88
2022-08-22T06:05:00.934Z,5.00
2022-08-22T06:08:14.273Z,5.43
2022-08-22T06:14:40.625Z,5.18
2022-08-22T06:17:52.886Z,5.03
2022-08-22T06:21:03.666Z,4.72
2022-08-22T06:24:13.062Z,4.82
2022-08-22T06:27:21.198Z,4.90
2022-08-22T06:30:28.360Z,5.07
2022-08-22T06:33:38.430Z,5.57
2022-08-22T06:36:48.185Z,5.22
2022-08-22T06:39:54.909Z,4.88
2022-08-22T06:42:59.170Z,4.45
2022-08-22T06:46:03.762Z,4.82
2022-08-22T06:49:09.136Z,4.90
2022-08-22T06:52:24.949Z,4.80
2022-08-22T06:55:30.575Z,4.43
2022-08-22T06:58:37.719Z,4.80
2022-08-22T07:01:50.763Z,4.55
2022-08-22T07:04:55.152Z,4.60
2022-08-22T07:08:06.425Z,4.53
2022-08-22T07:11:17.496Z,4.97
2022-08-22T07:14:33.135Z,4.10
2022-08-22T07:17:49.658Z,4.43
2022-08-22T07:20:57.038Z,4.65
2022-08-22T07:24:02.384Z,4.63
2022-08-22T07:27:18.413Z,5.18
2022-08-22T07:30:34.424Z,5.20
2022-08-22T07:33:46.420Z,4.82
2022-08-22T07:36:58.923Z,4.72
2022-08-22T07:40:12.998Z,4.75
2022-08-22T07:43:38.083Z,7.83
2022-08-22T07:46:52.097Z,4.47
2022-08-22T07:49:59.861Z,4.43
2022-08-22T07:53:28.333Z,5.20
2022-08-22T07:56:42.347Z,4.80
2022-08-22T07:59:52.095Z,5.47
2022-08-22T08:03:01.101Z,5.10
2022-08-22T08:06:05.721Z,5.78
2022-08-22T08:09:15.606Z,5.30
2022-08-22T08:12:26.106Z,5.55
2022-08-22T08:15:34.641Z,5.13
2022-08-22T08:18:39.620Z,4.85
2022-08-22T08:21:51.515Z,5.20
2022-08-22T08:24:58.617Z,5.22
2022-08-22T08:28:23.317Z,4.60
2022-08-22T08:31:31.900Z,4.50
2022-08-22T08:34:38.225Z,3.83
2022-08-22T08:37:52.897Z,3.30
2022-08-22T08:41:44.857Z,2.95
2022-08-22T08:44:51.656Z,3.25
2022-08-22T08:48:21.013Z,2.92
2022-08-22T08:51:36.951Z,2.83
2022-08-22T08:54:43.283Z,3.05
2022-08-22T08:58:17.646Z,2.65
2022-08-22T09:02:03.880Z,2.45
2022-08-22T09:05:27.669Z,2.75
2022-08-22T09:09:01.924Z,2.38
2022-08-22T09:12:14.155Z,2.20
2022-08-22T09:15:58.604Z,2.45
2022-08-22T09:19:11.874Z,2.90
2022-08-22T09:23:03.940Z,2.28
2022-08-22T09:26:29.233Z,2.30
2022-08-22T09:29:54.536Z,2.20
2022-08-22T09:33:13.993Z,3.38
2022-08-22T09:36:45.829Z,2.30
2022-08-22T09:40:32.899Z,2.00
2022-08-22T09:43:55.126Z,2.00
2022-08-22T09:47:24.746Z,1.80
2022-08-22T09:50:44.799Z,2.08
2022-08-22T09:54:14.806Z,1.75
2022-08-22T09:57:37.947Z,1.52
2022-08-22T10:00:54.981Z,3.03
2022-08-22T10:04:14.610Z,1.63
2022-08-22T10:07:32.570Z,1.52
2022-08-22T10:10:46.570Z,2.10
2022-08-22T10:14:00.817Z,1.92
2022-08-22T10:17:21.905Z,2.10
2022-08-22T10:20:36.099Z,1.85
2022-08-22T10:23:49.564Z,2.60
2022-08-22T10:26:58.797Z,2.00
2022-08-22T10:30:20.341Z,1.88
2022-08-22T10:33:35.220Z,1.77
2022-08-22T10:37:07.260Z,1.67
2022-08-22T10:40:34.337Z,2.08
2022-08-22T10:43:49.708Z,1.70
2022-08-22T10:47:24.045Z,2.00
2022-08-22T10:50:33.510Z,1.80
2022-08-22T10:53:59.025Z,2.10
2022-08-22T10:57:27.592Z,1.88
2022-08-22T11:00:46.213Z,1.80
2022-08-22T11:04:12.069Z,2.10
2022-08-22T11:07:28.888Z,1.67
2022-08-22T11:10:55.012Z,1.83
2022-08-22T11:14:13.393Z,2.00
2022-08-22T11:17:35.579Z,1.90
2022-08-22T11:20:55.484Z,1.80
2022-08-22T11:24:35.266Z,1.65
2022-08-22T11:27:53.292Z,1.85
2022-08-22T11:31:31.854Z,2.20
2022-08-22T11:35:03.657Z,2.08
2022-08-22T11:38:32.725Z,1.90
2022-08-22T11:44:54.279Z,1.90
2022-08-22T11:48:06.332Z,2.05
2022-08-22T11:51:45.977Z,2.20
2022-08-22T11:55:32.725Z,2.42
2022-08-22T11:59:01.346Z,1.67
2022-08-22T12:02:17.385Z,2.20
2022-08-22T12:05:30.759Z,2.10
2022-08-22T12:08:40.777Z,1.90
2022-08-22T12:12:00.135Z,1.80
2022-08-22T12:15:15.967Z,2.30
2022-08-22T12:18:21.372Z,2.00
2022-08-22T12:21:43.832Z,2.10
2022-08-22T12:25:07.776Z,2.30
2022-08-22T12:28:25.524Z,1.85
2022-08-22T12:32:04.470Z,2.00
2022-08-22T12:35:29.823Z,2.00
2022-08-22T12:38:52.765Z,1.90
2022-08-22T12:42:27.563Z,2.33
2022-08-22T12:45:48.039Z,1.83
2022-08-22T12:49:13.065Z,1.92
2022-08-22T12:52:30.954Z,1.95
2022-08-22T12:56:34.219Z,2.28
2022-08-22T12:59:45.092Z,2.20
2022-08-22T13:02:52.940Z,2.60
2022-08-22T13:06:03.234Z,2.53
2022-08-22T13:09:19.673Z,1.90
2022-08-22T13:12:35.185Z,2.88
2022-08-22T13:15:56.523Z,2.10
2022-08-22T13:19:07.820Z,2.25
2022-08-22T13:22:20.321Z,2.30
2022-08-22T13:25:28.477Z,2.03
2022-08-22T13:28:40.696Z,2.17
2022-08-22T13:31:52.819Z,2.03
2022-08-22T13:35:00.626Z,2.20
2022-08-22T13:38:13.044Z,2.10
2022-08-22T13:41:30.646Z,1.75
2022-08-22T13:44:41.814Z,2.08
2022-08-22T13:47:51.754Z,2.03
2022-08-22T13:51:14.419Z,1.90
2022-08-22T13:54:41.524Z,2.15
2022-08-22T13:58:00.892Z,2.10
2022-08-22T14:01:32.041Z,2.20
2022-08-22T14:04:41.639Z,1.60
2022-08-22T14:07:59.867Z,2.05
2022-08-22T14:11:14.407Z,1.85
2022-08-22T14:14:33.626Z,2.03
2022-08-22T14:17:42.886Z,2.05
2022-08-22T14:20:48.641Z,1.95
2022-08-22T14:23:57.869Z,1.88
2022-08-22T14:27:12.291Z,2.00
2022-08-22T14:30:24.440Z,2.30
2022-08-22T14:33:45.355Z,2.13
2022-08-22T14:37:00.200Z,2.00
2022-08-22T14:43:40.398Z,2.08
2022-08-22T14:46:44.483Z,1.75
2022-08-22T14:49:56.761Z,1.95
2022-08-22T14:53:22.169Z,1.90
2022-08-22T14:56:30.421Z,1.90
2022-08-22T14:59:43.837Z,2.00
2022-08-22T15:02:48.347Z,1.98
2022-08-22T15:06:06.401Z,2.22
2022-08-22T15:09:49.079Z,1.95
2022-08-22T15:12:58.621Z,2.60
2022-08-22T15:16:16.177Z,2.25
2022-08-22T15:19:45.765Z,1.83
2022-08-22T15:22:51.790Z,2.08
2022-08-22T15:26:03.835Z,1.90
2022-08-22T15:29:24.856Z,1.98
2022-08-22T15:32:31.341Z,1.77
2022-08-22T15:35:38.842Z,2.13
2022-08-22T15:38:48.453Z,1.80
2022-08-22T15:41:53.356Z,2.10
2022-08-22T15:44:59.320Z,1.88
2022-08-22T15:48:13.460Z,2.30
2022-08-22T15:54:41.557Z,2.20
2022-08-22T15:58:09.066Z,1.83
2022-08-22T16:01:22.298Z,1.98
2022-08-22T16:04:50.253Z,1.80
2022-08-22T16:07:57.632Z,1.90
2022-08-22T16:11:01.674Z,2.10
2022-08-22T16:14:46.241Z,2.00
2022-08-22T16:18:02.572Z,1.95
2022-08-22T16:21:16.632Z,2.22
2022-08-22T16:24:21.661Z,2.10
2022-08-22T16:27:27.023Z,2.50
2022-08-22T16:30:34.775Z,1.90
2022-08-22T16:33:41.954Z,1.90
2022-08-22T16:36:51.615Z,2.10
2022-08-22T16:39:58.964Z,1.80
2022-08-22T16:43:17.130Z,2.03
2022-08-22T16:46:36.372Z,1.95
2022-08-22T16:49:43.762Z,2.33
2022-08-22T16:53:04.408Z,2.10
2022-08-22T16:56:27.196Z,1.90
2022-08-22T16:59:44.568Z,2.30
2022-08-22T17:03:23.037Z,2.00
2022-08-22T17:06:48.834Z,2.10
2022-08-22T17:10:11.673Z,1.98
2022-08-22T17:13:19.243Z,1.90
2022-08-22T17:16:39.724Z,1.90
2022-08-22T17:20:18.756Z,1.60
2022-08-22T17:23:41.567Z,1.80
2022-08-22T17:27:02.131Z,1.80
2022-08-22T17:30:09.320Z,1.80
2022-08-22T17:33:28.882Z,1.80
2022-08-22T17:37:01.394Z,1.80
2022-08-22T17:40:33.520Z,2.22
2022-08-22T17:43:55.788Z,2.65
2022-08-22T17:47:08.025Z,2.15
2022-08-22T17:50:26.596Z,1.95
2022-08-22T17:54:01.277Z,2.00
2022-08-22T17:57:13.854Z,2.30
2022-08-22T18:00:26.299Z,2.00
2022-08-22T18:03:37.672Z,2.20
2022-08-22T18:06:49.174Z,1.63
2022-08-22T18:10:10.875Z,2.00
2022-08-22T18:13:30.910Z,1.90
2022-08-22T18:16:43.918Z,2.00
2022-08-22T18:20:11.204Z,2.05
2022-08-22T18:23:35.690Z,2.35
2022-08-22T18:27:01.183Z,2.30
2022-08-22T18:30:21.891Z,2.70
2022-08-22T18:33:35.845Z,2.33
2022-08-22T18:36:51.696Z,2.20
2022-08-22T18:40:08.377Z,1.95
2022-08-22T18:46:37.794Z,2.10
2022-08-22T18:49:45.603Z,2.20
2022-08-22T18:52:50.878Z,2.30
2022-08-22T18:56:18.484Z,2.28
2022-08-22T18:59:40.776Z,2.38
2022-08-22T19:03:01.107Z,2.10
2022-08-22T19:06:24.224Z,2.70
2022-08-22T19:10:06.054Z,2.20
2022-08-22T19:13:23.960Z,2.75
2022-08-22T19:16:55.867Z,2.40
2022-08-22T19:20:27.815Z,2.60
2022-08-22T19:23:40.550Z,2.30
2022-08-22T19:27:06.352Z,2.70
2022-08-22T19:30:29.283Z,2.53
2022-08-22T19:33:41.820Z,3.05
2022-08-22T19:37:06.526Z,2.50
2022-08-22T19:40:45.349Z,2.60
2022-08-22T19:43:49.323Z,2.88
2022-08-22T19:47:18.095Z,3.08
2022-08-22T19:50:22.339Z,2.95
2022-08-22T19:53:46.958Z,3.05
2022-08-22T19:56:56.916Z,3.08
2022-08-22T20:00:09.600Z,3.03
2022-08-22T20:03:22.300Z,2.90
2022-08-22T20:06:46.049Z,3.00
2022-08-22T20:09:53.332Z,3.38
2022-08-22T20:13:18.260Z,3.13
2022-08-22T20:16:44.006Z,3.22
2022-08-22T20:23:29.471Z,3.00
2022-08-22T20:26:37.852Z,2.70
2022-08-22T20:30:14.036Z,2.97
2022-08-22T20:33:26.427Z,3.08
2022-08-22T20:36:31.799Z,2.50
2022-08-22T20:39:42.035Z,3.05
2022-08-22T20:42:50.310Z,3.05
2022-08-22T20:46:16.507Z,2.38
2022-08-22T20:49:31.480Z,2.55
2022-08-22T20:52:42.434Z,3.10
2022-08-22T20:55:55.627Z,2.70
2022-08-22T20:59:01.334Z,2.90
2022-08-22T21:02:21.281Z,2.80
2022-08-22T21:05:33.321Z,2.83
2022-08-22T21:08:38.051Z,2.42
2022-08-22T21:11:50.942Z,2.60
2022-08-22T21:14:55.000Z,2.55
2022-08-22T21:17:59.844Z,2.80
2022-08-22T21:21:17.742Z,2.30
2022-08-22T21:24:21.907Z,2.55
2022-08-22T21:27:32.665Z,2.97
2022-08-22T21:30:37.277Z,2.90
2022-08-22T21:33:47.015Z,2.88
2022-08-22T21:36:54.594Z,2.65
2022-08-22T21:40:21.457Z,2.70
2022-08-22T21:43:34.179Z,3.13
2022-08-22T21:46:38.501Z,3.00
2022-08-22T21:50:07.523Z,2.60
2022-08-22T21:53:27.558Z,2.83
2022-08-22T21:56:31.645Z,3.00
2022-08-22T21:59:51.773Z,3.00
2022-08-22T22:03:04.333Z,2.60
2022-08-22T22:06:11.668Z,2.90
2022-08-22T22:09:15.514Z,2.97
2022-08-22T22:12:20.265Z,2.50
2022-08-22T22:15:27.483Z,2.75
2022-08-22T22:18:32.841Z,2.47
2022-08-22T22:21:37.037Z,2.80
2022-08-22T22:24:41.301Z,2.78
2022-08-22T22:27:46.640Z,4.20
2022-08-22T22:30:53.241Z,2.63
2022-08-22T22:33:56.958Z,2.80
2022-08-22T22:37:01.102Z,3.00
2022-08-22T22:40:08.141Z,2.72
2022-08-22T22:43:13.329Z,2.90
2022-08-22T22:46:17.505Z,3.00
2022-08-22T22:49:21.381Z,3.35
2022-08-22T22:52:25.118Z,3.40
2022-08-22T22:55:29.699Z,2.95
2022-08-22T22:58:35.930Z,3.60
2022-08-22T23:02:07.192Z,3.35
2022-08-22T23:05:11.918Z,3.50
2022-08-22T23:08:15.894Z,3.55
2022-08-22T23:11:29.020Z,3.50
2022-08-22T23:14:33.998Z,3.25
2022-08-22T23:17:38.235Z,3.40
2022-08-22T23:20:42.467Z,3.47
2022-08-22T23:23:47.718Z,3.60
2022-08-22T23:26:52.350Z,3.50
2022-08-22T23:29:56.015Z,3.83
2022-08-22T23:33:00.053Z,3.90
2022-08-22T23:36:17.066Z,3.35
2022-08-22T23:39:22.684Z,4.20
2022-08-22T23:42:26.659Z,3.60
2022-08-22T23:45:30.632Z,3.63
2022-08-22T23:48:34.943Z,3.60
2022-08-22T23:51:39.665Z,3.97
2022-08-22T23:54:43.792Z,3.65
2022-08-22T23:57:47.807Z,3.35
